sensor_id;sensor_type;location;lat;lon;timestamp;temperature;humidity
39919;DHT22;25589;51.552;13.424;2022-12-18T00:02:14;0.70;99.90
39919;DHT22;25589;51.552;13.424;2022-12-18T00:04:40;-0.10;99.90
39919;DHT22;25589;51.552;13.424;2022-12-18T00:07:05;-0.10;99.90
39919;DHT22;25589;51.552;13.424;2022-12-18T00:09:31;0.10;99.90
39919;DHT22;25589;51.552;13.424;2022-12-18T00:11:57;-1.20;99.90
39919;DHT22;25589;51.552;13.424;2022-12-18T00:14:22;0.90;99.90
39919;DHT22;25589;51.552;13.424;2022-12-18T00:16:48;0.20;99.90
39919;DHT22;25589;51.552;13.424;2022-12-18T00:19:14;0.00;99.90
39919;DHT22;25589;51.552;13.424;2022-12-18T00:21:40;0.40;99.90
39919;DHT22;25589;51.552;13.424;2022-12-18T00:24:06;-0.50;99.90
39919;DHT22;25589;51.552;13.424;2022-12-18T00:26:33;-0.70;99.90
39919;DHT22;25589;51.552;13.424;2022-12-18T00:29:03;0.50;99.90
39919;DHT22;25589;51.552;13.424;2022-12-18T00:31:29;-0.30;99.90
39919;DHT22;25589;51.552;13.424;2022-12-18T00:33:56;-0.60;99.90
39919;DHT22;25589;51.552;13.424;2022-12-18T00:36:24;-0.20;99.90
39919;DHT22;25589;51.552;13.424;2022-12-18T00:41:19;-0.40;99.90
39919;DHT22;25589;51.552;13.424;2022-12-18T00:44:05;0.10;99.90
39919;DHT22;25589;51.552;13.424;2022-12-18T00:46:31;0.20;99.90
39919;DHT22;25589;51.552;13.424;2022-12-18T00:48:57;0.60;99.90
39919;DHT22;25589;51.552;13.424;2022-12-18T00:51:23;1.20;99.90
39919;DHT22;25589;51.552;13.424;2022-12-18T00:53:49;0.90;99.90
39919;DHT22;25589;51.552;13.424;2022-12-18T00:56:14;0.10;99.90
39919;DHT22;25589;51.552;13.424;2022-12-18T00:58:40;-1.10;99.90
39919;DHT22;25589;51.552;13.424;2022-12-18T01:01:06;0.10;99.90
39919;DHT22;25589;51.552;13.424;2022-12-18T01:03:33;-0.30;99.90
39919;DHT22;25589;51.552;13.424;2022-12-18T01:05:59;-0.20;99.90
39919;DHT22;25589;51.552;13.424;2022-12-18T01:08:25;-0.30;99.90
39919;DHT22;25589;51.552;13.424;2022-12-18T01:10:50;-0.30;99.90
39919;DHT22;25589;51.552;13.424;2022-12-18T01:13:16;-0.90;99.90
39919;DHT22;25589;51.552;13.424;2022-12-18T01:18:14;1.20;99.90
39919;DHT22;25589;51.552;13.424;2022-12-18T01:20:40;-0.20;99.90
39919;DHT22;25589;51.552;13.424;2022-12-18T01:23:05;-0.10;99.90
39919;DHT22;25589;51.552;13.424;2022-12-18T01:25:33;0.50;99.90
39919;DHT22;25589;51.552;13.424;2022-12-18T01:28:00;-1.30;99.90
39919;DHT22;25589;51.552;13.424;2022-12-18T01:30:27;0.80;99.90
39919;DHT22;25589;51.552;13.424;2022-12-18T01:32:52;-0.10;99.90
39919;DHT22;25589;51.552;13.424;2022-12-18T01:35:18;-0.20;99.90
39919;DHT22;25589;51.552;13.424;2022-12-18T01:37:45;0.90;99.90
39919;DHT22;25589;51.552;13.424;2022-12-18T01:40:11;-0.70;99.90
39919;DHT22;25589;51.552;13.424;2022-12-18T01:42:36;-0.30;99.90
39919;DHT22;25589;51.552;13.424;2022-12-18T01:47:38;-1.50;99.90
39919;DHT22;25589;51.552;13.424;2022-12-18T01:50:31;0.20;99.90
39919;DHT22;25589;51.552;13.424;2022-12-18T01:52:59;-0.30;99.90
39919;DHT22;25589;51.552;13.424;2022-12-18T01:55:28;-0.90;99.90
39919;DHT22;25589;51.552;13.424;2022-12-18T01:57:56;-0.40;99.90
39919;DHT22;25589;51.552;13.424;2022-12-18T02:02:50;0.60;99.90
39919;DHT22;25589;51.552;13.424;2022-12-18T02:05:29;-0.10;99.90
39919;DHT22;25589;51.552;13.424;2022-12-18T02:08:26;-0.40;99.90
39919;DHT22;25589;51.552;13.424;2022-12-18T02:11:25;-0.50;99.90
39919;DHT22;25589;51.552;13.424;2022-12-18T02:19:06;-0.70;99.90
39919;DHT22;25589;51.552;13.424;2022-12-18T02:21:50;0.50;99.90
39919;DHT22;25589;51.552;13.424;2022-12-18T02:27:01;0.40;99.90
39919;DHT22;25589;51.552;13.424;2022-12-18T02:29:35;-0.10;99.90
39919;DHT22;25589;51.552;13.424;2022-12-18T02:32:06;-0.60;99.90
39919;DHT22;25589;51.552;13.424;2022-12-18T02:34:36;-0.60;99.90
39919;DHT22;25589;51.552;13.424;2022-12-18T02:37:08;-0.70;99.90
39919;DHT22;25589;51.552;13.424;2022-12-18T02:39:39;-0.40;99.90
39919;DHT22;25589;51.552;13.424;2022-12-18T02:42:06;-0.60;99.90
39919;DHT22;25589;51.552;13.424;2022-12-18T02:47:01;-0.90;99.90
39919;DHT22;25589;51.552;13.424;2022-12-18T02:49:57;-0.60;99.90
39919;DHT22;25589;51.552;13.424;2022-12-18T02:55:31;-2.00;99.90
39919;DHT22;25589;51.552;13.424;2022-12-18T02:59:09;-0.30;99.90
39919;DHT22;25589;51.552;13.424;2022-12-18T03:01:49;-0.70;99.90
39919;DHT22;25589;51.552;13.424;2022-12-18T03:04:28;-0.90;99.90
39919;DHT22;25589;51.552;13.424;2022-12-18T03:06:59;-0.90;99.90
39919;DHT22;25589;51.552;13.424;2022-12-18T03:09:33;-0.20;99.90
39919;DHT22;25589;51.552;13.424;2022-12-18T03:12:20;0.10;99.90
39919;DHT22;25589;51.552;13.424;2022-12-18T03:15:35;-0.80;99.90
39919;DHT22;25589;51.552;13.424;2022-12-18T03:17:37;-0.80;99.90
39919;DHT22;25589;51.552;13.424;2022-12-18T03:20:12;-0.30;99.90
39919;DHT22;25589;51.552;13.424;2022-12-18T03:22:39;0.00;99.90
39919;DHT22;25589;51.552;13.424;2022-12-18T03:25:10;-0.20;99.90
39919;DHT22;25589;51.552;13.424;2022-12-18T03:27:43;0.40;99.90
39919;DHT22;25589;51.552;13.424;2022-12-18T03:30:15;-0.70;99.90
39919;DHT22;25589;51.552;13.424;2022-12-18T03:32:51;-0.80;99.90
39919;DHT22;25589;51.552;13.424;2022-12-18T03:35:24;-0.20;99.90
39919;DHT22;25589;51.552;13.424;2022-12-18T03:37:51;-1.00;99.90
39919;DHT22;25589;51.552;13.424;2022-12-18T03:40:19;-0.90;99.90
39919;DHT22;25589;51.552;13.424;2022-12-18T03:42:52;-0.90;99.90
39919;DHT22;25589;51.552;13.424;2022-12-18T03:45:30;0.30;99.90
39919;DHT22;25589;51.552;13.424;2022-12-18T03:52:11;-1.70;99.90
39919;DHT22;25589;51.552;13.424;2022-12-18T03:54:06;-1.80;99.90
39919;DHT22;25589;51.552;13.424;2022-12-18T03:56:44;-1.10;99.90
39919;DHT22;25589;51.552;13.424;2022-12-18T03:59:12;-1.00;99.90
39919;DHT22;25589;51.552;13.424;2022-12-18T04:01:42;-1.40;99.90
39919;DHT22;25589;51.552;13.424;2022-12-18T04:04:12;-1.70;99.90
39919;DHT22;25589;51.552;13.424;2022-12-18T04:06:41;-0.30;99.90
39919;DHT22;25589;51.552;13.424;2022-12-18T04:09:09;-0.50;99.90
39919;DHT22;25589;51.552;13.424;2022-12-18T04:11:40;-1.40;99.90
39919;DHT22;25589;51.552;13.424;2022-12-18T04:14:06;-0.80;99.90
39919;DHT22;25589;51.552;13.424;2022-12-18T04:16:31;-1.60;99.90
39919;DHT22;25589;51.552;13.424;2022-12-18T04:19:00;-1.00;99.90
39919;DHT22;25589;51.552;13.424;2022-12-18T04:21:29;-1.60;99.90
39919;DHT22;25589;51.552;13.424;2022-12-18T04:23:54;-0.50;99.90
39919;DHT22;25589;51.552;13.424;2022-12-18T04:26:22;-1.50;99.90
39919;DHT22;25589;51.552;13.424;2022-12-18T04:29:02;-1.50;99.90
39919;DHT22;25589;51.552;13.424;2022-12-18T04:31:28;-2.50;99.90
39919;DHT22;25589;51.552;13.424;2022-12-18T04:33:54;-2.10;99.90
39919;DHT22;25589;51.552;13.424;2022-12-18T04:36:19;-1.40;99.90
39919;DHT22;25589;51.552;13.424;2022-12-18T04:38:46;-1.60;99.90
39919;DHT22;25589;51.552;13.424;2022-12-18T04:41:14;-1.60;99.90
39919;DHT22;25589;51.552;13.424;2022-12-18T04:46:08;-1.70;99.90
39919;DHT22;25589;51.552;13.424;2022-12-18T04:48:36;-1.60;99.90
39919;DHT22;25589;51.552;13.424;2022-12-18T04:51:03;-1.80;99.90
39919;DHT22;25589;51.552;13.424;2022-12-18T04:53:29;-0.50;99.90
39919;DHT22;25589;51.552;13.424;2022-12-18T04:56:05;-0.90;99.90
39919;DHT22;25589;51.552;13.424;2022-12-18T04:58:30;-1.30;99.90
39919;DHT22;25589;51.552;13.424;2022-12-18T05:00:56;-0.80;99.90
39919;DHT22;25589;51.552;13.424;2022-12-18T05:03:22;-2.40;99.90
39919;DHT22;25589;51.552;13.424;2022-12-18T05:05:50;-1.30;99.90
39919;DHT22;25589;51.552;13.424;2022-12-18T05:08:16;-0.40;99.90
39919;DHT22;25589;51.552;13.424;2022-12-18T05:10:42;-0.60;99.90
39919;DHT22;25589;51.552;13.424;2022-12-18T05:13:08;-2.70;99.90
39919;DHT22;25589;51.552;13.424;2022-12-18T05:15:33;-1.70;99.90
39919;DHT22;25589;51.552;13.424;2022-12-18T05:18:00;-1.70;99.90
39919;DHT22;25589;51.552;13.424;2022-12-18T05:20:26;-1.00;99.90
39919;DHT22;25589;51.552;13.424;2022-12-18T05:22:53;-2.50;99.90
39919;DHT22;25589;51.552;13.424;2022-12-18T05:25:19;-1.50;99.90
39919;DHT22;25589;51.552;13.424;2022-12-18T05:27:45;-0.50;99.90
39919;DHT22;25589;51.552;13.424;2022-12-18T05:30:12;-1.50;99.90
39919;DHT22;25589;51.552;13.424;2022-12-18T05:32:38;-1.70;99.90
39919;DHT22;25589;51.552;13.424;2022-12-18T05:35:05;-2.80;99.90
39919;DHT22;25589;51.552;13.424;2022-12-18T05:37:31;-1.20;99.90
39919;DHT22;25589;51.552;13.424;2022-12-18T05:39:56;-0.60;99.90
39919;DHT22;25589;51.552;13.424;2022-12-18T05:42:22;-1.50;99.90
39919;DHT22;25589;51.552;13.424;2022-12-18T05:44:47;-1.60;99.90
39919;DHT22;25589;51.552;13.424;2022-12-18T05:47:13;-2.10;99.90
39919;DHT22;25589;51.552;13.424;2022-12-18T05:49:39;-1.40;99.90
39919;DHT22;25589;51.552;13.424;2022-12-18T05:52:04;-0.60;99.90
39919;DHT22;25589;51.552;13.424;2022-12-18T05:54:30;-1.70;99.90
39919;DHT22;25589;51.552;13.424;2022-12-18T05:56:56;-1.60;99.90
39919;DHT22;25589;51.552;13.424;2022-12-18T06:01:48;-1.60;99.90
39919;DHT22;25589;51.552;13.424;2022-12-18T06:04:14;-1.00;99.90
39919;DHT22;25589;51.552;13.424;2022-12-18T06:06:40;-2.10;99.90
39919;DHT22;25589;51.552;13.424;2022-12-18T06:09:05;-2.50;99.90
39919;DHT22;25589;51.552;13.424;2022-12-18T06:11:34;-1.60;99.90
39919;DHT22;25589;51.552;13.424;2022-12-18T06:14:00;-2.70;99.90
39919;DHT22;25589;51.552;13.424;2022-12-18T06:16:28;-0.70;99.90
39919;DHT22;25589;51.552;13.424;2022-12-18T06:18:56;-1.30;99.90
39919;DHT22;25589;51.552;13.424;2022-12-18T06:21:22;-1.70;99.90
39919;DHT22;25589;51.552;13.424;2022-12-18T06:23:47;-1.50;99.90
39919;DHT22;25589;51.552;13.424;2022-12-18T06:26:13;-1.70;99.90
39919;DHT22;25589;51.552;13.424;2022-12-18T06:28:39;-1.80;99.90
39919;DHT22;25589;51.552;13.424;2022-12-18T06:31:05;-1.00;99.90
39919;DHT22;25589;51.552;13.424;2022-12-18T06:33:31;-1.20;99.90
39919;DHT22;25589;51.552;13.424;2022-12-18T06:36:01;-1.30;99.90
39919;DHT22;25589;51.552;13.424;2022-12-18T06:38:26;-1.60;99.90
39919;DHT22;25589;51.552;13.424;2022-12-18T06:40:52;-0.50;99.90
39919;DHT22;25589;51.552;13.424;2022-12-18T06:43:18;-1.00;99.90
39919;DHT22;25589;51.552;13.424;2022-12-18T06:45:43;-0.60;99.90
39919;DHT22;25589;51.552;13.424;2022-12-18T06:48:09;-0.90;99.90
39919;DHT22;25589;51.552;13.424;2022-12-18T06:50:34;-1.30;99.90
39919;DHT22;25589;51.552;13.424;2022-12-18T06:53:00;-1.40;99.90
39919;DHT22;25589;51.552;13.424;2022-12-18T06:55:25;-0.70;99.90
39919;DHT22;25589;51.552;13.424;2022-12-18T06:57:51;-1.40;99.90
39919;DHT22;25589;51.552;13.424;2022-12-18T07:00:17;-1.50;99.90
39919;DHT22;25589;51.552;13.424;2022-12-18T07:02:42;-1.50;99.90
39919;DHT22;25589;51.552;13.424;2022-12-18T07:07:34;-1.70;99.90
39919;DHT22;25589;51.552;13.424;2022-12-18T07:10:00;-1.70;99.90
39919;DHT22;25589;51.552;13.424;2022-12-18T07:14:52;-1.70;99.90
39919;DHT22;25589;51.552;13.424;2022-12-18T07:17:18;-1.60;99.90
39919;DHT22;25589;51.552;13.424;2022-12-18T07:19:44;-0.70;99.90
39919;DHT22;25589;51.552;13.424;2022-12-18T07:22:09;-1.40;99.90
39919;DHT22;25589;51.552;13.424;2022-12-18T07:24:35;-1.60;99.90
39919;DHT22;25589;51.552;13.424;2022-12-18T07:27:00;-1.60;99.90
39919;DHT22;25589;51.552;13.424;2022-12-18T07:29:26;-2.00;99.90
39919;DHT22;25589;51.552;13.424;2022-12-18T07:31:51;-1.60;99.90
39919;DHT22;25589;51.552;13.424;2022-12-18T07:34:17;-1.60;99.90
39919;DHT22;25589;51.552;13.424;2022-12-18T07:36:43;-2.20;99.90
39919;DHT22;25589;51.552;13.424;2022-12-18T07:39:10;-1.50;99.90
39919;DHT22;25589;51.552;13.424;2022-12-18T07:41:35;-1.70;99.90
39919;DHT22;25589;51.552;13.424;2022-12-18T07:44:12;-2.70;99.90
39919;DHT22;25589;51.552;13.424;2022-12-18T07:46:37;-0.80;99.90
39919;DHT22;25589;51.552;13.424;2022-12-18T07:49:03;-1.70;99.90
39919;DHT22;25589;51.552;13.424;2022-12-18T07:51:29;-1.30;99.90
39919;DHT22;25589;51.552;13.424;2022-12-18T07:53:54;-1.50;99.90
39919;DHT22;25589;51.552;13.424;2022-12-18T07:56:20;-1.40;99.90
39919;DHT22;25589;51.552;13.424;2022-12-18T07:58:46;-1.40;99.90
39919;DHT22;25589;51.552;13.424;2022-12-18T08:01:12;-1.80;99.90
39919;DHT22;25589;51.552;13.424;2022-12-18T08:03:39;-0.90;99.90
39919;DHT22;25589;51.552;13.424;2022-12-18T08:06:08;-1.90;99.90
39919;DHT22;25589;51.552;13.424;2022-12-18T08:13:27;-1.70;99.90
39919;DHT22;25589;51.552;13.424;2022-12-18T08:16:01;-1.90;99.90
39919;DHT22;25589;51.552;13.424;2022-12-18T08:18:27;-2.40;99.90
39919;DHT22;25589;51.552;13.424;2022-12-18T08:20:52;-1.70;99.90
39919;DHT22;25589;51.552;13.424;2022-12-18T08:23:18;-1.60;99.90
39919;DHT22;25589;51.552;13.424;2022-12-18T08:25:44;-1.60;99.90
39919;DHT22;25589;51.552;13.424;2022-12-18T08:28:09;-1.50;99.90
39919;DHT22;25589;51.552;13.424;2022-12-18T08:30:35;-1.50;99.90
39919;DHT22;25589;51.552;13.424;2022-12-18T08:33:02;-0.60;99.90
39919;DHT22;25589;51.552;13.424;2022-12-18T08:35:28;-0.90;99.90
39919;DHT22;25589;51.552;13.424;2022-12-18T08:37:53;-0.40;99.90
39919;DHT22;25589;51.552;13.424;2022-12-18T08:40:19;-1.40;99.90
39919;DHT22;25589;51.552;13.424;2022-12-18T08:42:45;-1.60;99.90
39919;DHT22;25589;51.552;13.424;2022-12-18T08:45:29;-2.00;99.90
39919;DHT22;25589;51.552;13.424;2022-12-18T08:47:54;-1.50;99.90
39919;DHT22;25589;51.552;13.424;2022-12-18T08:50:20;-1.40;99.90
39919;DHT22;25589;51.552;13.424;2022-12-18T08:52:46;-2.50;99.90
39919;DHT22;25589;51.552;13.424;2022-12-18T08:55:11;-1.40;99.90
39919;DHT22;25589;51.552;13.424;2022-12-18T08:57:37;-1.80;99.90
39919;DHT22;25589;51.552;13.424;2022-12-18T09:00:04;-2.00;99.90
39919;DHT22;25589;51.552;13.424;2022-12-18T09:02:30;-1.20;99.90
39919;DHT22;25589;51.552;13.424;2022-12-18T09:04:55;-1.20;99.90
39919;DHT22;25589;51.552;13.424;2022-12-18T09:07:21;-0.40;99.90
39919;DHT22;25589;51.552;13.424;2022-12-18T09:09:46;-1.00;99.90
39919;DHT22;25589;51.552;13.424;2022-12-18T09:12:12;-0.60;99.90
39919;DHT22;25589;51.552;13.424;2022-12-18T09:14:37;-0.80;99.90
39919;DHT22;25589;51.552;13.424;2022-12-18T09:17:03;-0.80;99.90
39919;DHT22;25589;51.552;13.424;2022-12-18T09:19:29;0.00;99.90
39919;DHT22;25589;51.552;13.424;2022-12-18T09:21:54;-0.40;99.90
39919;DHT22;25589;51.552;13.424;2022-12-18T09:24:20;0.10;99.90
39919;DHT22;25589;51.552;13.424;2022-12-18T09:26:48;-0.50;99.90
39919;DHT22;25589;51.552;13.424;2022-12-18T09:29:15;-0.40;99.90
39919;DHT22;25589;51.552;13.424;2022-12-18T09:31:40;-0.20;99.90
39919;DHT22;25589;51.552;13.424;2022-12-18T09:34:06;0.80;99.90
39919;DHT22;25589;51.552;13.424;2022-12-18T09:36:32;0.40;99.90
39919;DHT22;25589;51.552;13.424;2022-12-18T09:38:58;0.20;99.90
39919;DHT22;25589;51.552;13.424;2022-12-18T09:44:21;0.90;99.90
39919;DHT22;25589;51.552;13.424;2022-12-18T09:49:29;0.20;99.90
39919;DHT22;25589;51.552;13.424;2022-12-18T09:52:02;1.00;99.90
39919;DHT22;25589;51.552;13.424;2022-12-18T09:54:41;0.50;99.90
39919;DHT22;25589;51.552;13.424;2022-12-18T09:57:13;0.30;99.90
39919;DHT22;25589;51.552;13.424;2022-12-18T09:59:39;0.30;99.90
39919;DHT22;25589;51.552;13.424;2022-12-18T10:02:21;0.50;99.90
39919;DHT22;25589;51.552;13.424;2022-12-18T10:05:10;0.30;99.90
39919;DHT22;25589;51.552;13.424;2022-12-18T10:07:57;0.80;99.90
39919;DHT22;25589;51.552;13.424;2022-12-18T10:16:12;1.40;99.90
39919;DHT22;25589;51.552;13.424;2022-12-18T10:21:41;2.40;99.90
39919;DHT22;25589;51.552;13.424;2022-12-18T10:26:46;1.70;99.90
39919;DHT22;25589;51.552;13.424;2022-12-18T10:31:39;0.70;99.90
39919;DHT22;25589;51.552;13.424;2022-12-18T10:34:10;1.40;99.90
39919;DHT22;25589;51.552;13.424;2022-12-18T10:36:35;1.60;99.90
39919;DHT22;25589;51.552;13.424;2022-12-18T10:39:18;2.60;99.90
39919;DHT22;25589;51.552;13.424;2022-12-18T10:41:44;2.00;99.90
39919;DHT22;25589;51.552;13.424;2022-12-18T10:44:19;1.90;99.90
39919;DHT22;25589;51.552;13.424;2022-12-18T10:46:50;2.10;99.90
39919;DHT22;25589;51.552;13.424;2022-12-18T10:49:23;3.10;99.90
39919;DHT22;25589;51.552;13.424;2022-12-18T10:51:51;2.10;99.90
39919;DHT22;25589;51.552;13.424;2022-12-18T10:54:23;2.30;99.90
39919;DHT22;25589;51.552;13.424;2022-12-18T10:56:50;3.70;99.90
39919;DHT22;25589;51.552;13.424;2022-12-18T10:59:17;2.20;99.90
39919;DHT22;25589;51.552;13.424;2022-12-18T11:01:53;2.10;99.90
39919;DHT22;25589;51.552;13.424;2022-12-18T11:09:25;2.80;99.90
39919;DHT22;25589;51.552;13.424;2022-12-18T11:11:53;1.80;99.90
39919;DHT22;25589;51.552;13.424;2022-12-18T11:14:55;1.30;99.90
39919;DHT22;25589;51.552;13.424;2022-12-18T11:19:55;2.50;99.90
39919;DHT22;25589;51.552;13.424;2022-12-18T11:22:39;1.80;99.90
39919;DHT22;25589;51.552;13.424;2022-12-18T11:27:38;2.60;99.90
39919;DHT22;25589;51.552;13.424;2022-12-18T11:30:31;3.40;99.90
39919;DHT22;25589;51.552;13.424;2022-12-18T11:33:06;2.90;99.90
39919;DHT22;25589;51.552;13.424;2022-12-18T11:35:52;2.70;99.90
39919;DHT22;25589;51.552;13.424;2022-12-18T11:38:24;3.20;99.90
39919;DHT22;25589;51.552;13.424;2022-12-18T11:41:19;2.80;99.90
39919;DHT22;25589;51.552;13.424;2022-12-18T11:43:56;3.90;99.90
39919;DHT22;25589;51.552;13.424;2022-12-18T11:46:32;2.70;99.90
39919;DHT22;25589;51.552;13.424;2022-12-18T11:49:26;3.40;99.90
39919;DHT22;25589;51.552;13.424;2022-12-18T11:51:59;4.00;99.90
39919;DHT22;25589;51.552;13.424;2022-12-18T11:54:25;3.40;99.90
39919;DHT22;25589;51.552;13.424;2022-12-18T11:56:56;3.90;99.90
39919;DHT22;25589;51.552;13.424;2022-12-18T12:07:55;3.30;99.90
39919;DHT22;25589;51.552;13.424;2022-12-18T12:10:52;4.20;99.90
39919;DHT22;25589;51.552;13.424;2022-12-18T12:13:51;4.70;99.90
39919;DHT22;25589;51.552;13.424;2022-12-18T12:19:06;5.20;99.90
39919;DHT22;25589;51.552;13.424;2022-12-18T12:21:44;4.90;99.90
39919;DHT22;25589;51.552;13.424;2022-12-18T12:24:26;4.30;99.90
39919;DHT22;25589;51.552;13.424;2022-12-18T12:30:13;4.50;99.90
39919;DHT22;25589;51.552;13.424;2022-12-18T12:35:58;4.40;99.90
39919;DHT22;25589;51.552;13.424;2022-12-18T12:41:05;4.20;99.90
39919;DHT22;25589;51.552;13.424;2022-12-18T12:43:42;3.90;99.90
39919;DHT22;25589;51.552;13.424;2022-12-18T12:46:10;3.50;99.90
39919;DHT22;25589;51.552;13.424;2022-12-18T12:48:47;4.00;99.90
39919;DHT22;25589;51.552;13.424;2022-12-18T12:51:28;3.90;99.90
39919;DHT22;25589;51.552;13.424;2022-12-18T12:53:56;3.60;99.90
39919;DHT22;25589;51.552;13.424;2022-12-18T12:56:25;3.80;99.90
39919;DHT22;25589;51.552;13.424;2022-12-18T12:58:58;2.80;99.90
39919;DHT22;25589;51.552;13.424;2022-12-18T13:01:40;4.10;99.90
39919;DHT22;25589;51.552;13.424;2022-12-18T13:04:40;3.00;99.90
39919;DHT22;25589;51.552;13.424;2022-12-18T13:07:24;3.80;99.90
39919;DHT22;25589;51.552;13.424;2022-12-18T13:15:37;3.90;99.90
39919;DHT22;25589;51.552;13.424;2022-12-18T13:18:14;4.10;99.90
39919;DHT22;25589;51.552;13.424;2022-12-18T13:25:49;5.10;99.90
39919;DHT22;25589;51.552;13.424;2022-12-18T13:29:02;4.20;99.90
39919;DHT22;25589;51.552;13.424;2022-12-18T13:31:02;4.10;99.90
39919;DHT22;25589;51.552;13.424;2022-12-18T13:36:12;3.70;99.90
39919;DHT22;25589;51.552;13.424;2022-12-18T13:38:38;3.60;99.90
39919;DHT22;25589;51.552;13.424;2022-12-18T13:41:23;3.60;99.90
39919;DHT22;25589;51.552;13.424;2022-12-18T13:43:52;3.50;99.90
39919;DHT22;25589;51.552;13.424;2022-12-18T13:46:46;3.20;99.90
39919;DHT22;25589;51.552;13.424;2022-12-18T13:51:43;3.20;99.90
39919;DHT22;25589;51.552;13.424;2022-12-18T13:54:36;3.40;99.90
39919;DHT22;25589;51.552;13.424;2022-12-18T13:57:03;2.80;99.90
39919;DHT22;25589;51.552;13.424;2022-12-18T13:59:35;3.90;99.90
39919;DHT22;25589;51.552;13.424;2022-12-18T14:02:16;3.20;99.90
39919;DHT22;25589;51.552;13.424;2022-12-18T14:04:45;3.80;99.90
39919;DHT22;25589;51.552;13.424;2022-12-18T14:07:14;4.10;99.90
39919;DHT22;25589;51.552;13.424;2022-12-18T14:09:44;2.80;99.90
39919;DHT22;25589;51.552;13.424;2022-12-18T14:12:17;3.90;99.90
39919;DHT22;25589;51.552;13.424;2022-12-18T14:15:03;2.60;99.90
39919;DHT22;25589;51.552;13.424;2022-12-18T14:17:31;2.10;99.90
39919;DHT22;25589;51.552;13.424;2022-12-18T14:19:57;2.60;99.90
39919;DHT22;25589;51.552;13.424;2022-12-18T14:22:25;1.60;99.90
39919;DHT22;25589;51.552;13.424;2022-12-18T14:30:35;1.70;99.90
39919;DHT22;25589;51.552;13.424;2022-12-18T14:36:04;1.50;99.90
39919;DHT22;25589;51.552;13.424;2022-12-18T14:38:31;2.30;99.90
39919;DHT22;25589;51.552;13.424;2022-12-18T14:41:02;1.30;99.90
39919;DHT22;25589;51.552;13.424;2022-12-18T14:43:33;1.10;99.90
39919;DHT22;25589;51.552;13.424;2022-12-18T14:45:59;1.00;99.90
39919;DHT22;25589;51.552;13.424;2022-12-18T14:48:38;0.80;99.90
39919;DHT22;25589;51.552;13.424;2022-12-18T14:51:05;1.90;99.90
39919;DHT22;25589;51.552;13.424;2022-12-18T14:54:05;0.50;99.90
39919;DHT22;25589;51.552;13.424;2022-12-18T15:01:30;0.70;99.90
39919;DHT22;25589;51.552;13.424;2022-12-18T15:03:57;0.70;99.90
39919;DHT22;25589;51.552;13.424;2022-12-18T15:06:43;0.50;99.90
39919;DHT22;25589;51.552;13.424;2022-12-18T15:09:25;-0.30;99.90
39919;DHT22;25589;51.552;13.424;2022-12-18T15:11:57;1.20;99.90
39919;DHT22;25589;51.552;13.424;2022-12-18T15:16:55;0.70;99.90
39919;DHT22;25589;51.552;13.424;2022-12-18T15:19:31;0.80;99.90
39919;DHT22;25589;51.552;13.424;2022-12-18T15:21:58;1.20;99.90
39919;DHT22;25589;51.552;13.424;2022-12-18T15:24:27;-1.10;99.90
39919;DHT22;25589;51.552;13.424;2022-12-18T15:26:55;0.60;99.90
39919;DHT22;25589;51.552;13.424;2022-12-18T15:29:21;0.80;99.90
39919;DHT22;25589;51.552;13.424;2022-12-18T15:32:02;0.20;99.90
39919;DHT22;25589;51.552;13.424;2022-12-18T15:34:28;-0.20;99.90
39919;DHT22;25589;51.552;13.424;2022-12-18T15:36:54;-0.20;99.90
39919;DHT22;25589;51.552;13.424;2022-12-18T15:39:20;-0.60;99.90
39919;DHT22;25589;51.552;13.424;2022-12-18T15:41:46;-1.60;99.90
39919;DHT22;25589;51.552;13.424;2022-12-18T15:44:33;-0.40;99.90
39919;DHT22;25589;51.552;13.424;2022-12-18T15:46:59;0.80;99.90
39919;DHT22;25589;51.552;13.424;2022-12-18T15:49:24;-0.50;99.90
39919;DHT22;25589;51.552;13.424;2022-12-18T15:51:53;-0.50;99.90
39919;DHT22;25589;51.552;13.424;2022-12-18T15:54:20;-0.30;99.90
39919;DHT22;25589;51.552;13.424;2022-12-18T15:57:07;-0.20;99.90
39919;DHT22;25589;51.552;13.424;2022-12-18T15:59:48;-0.30;99.90
39919;DHT22;25589;51.552;13.424;2022-12-18T16:02:19;0.30;99.90
39919;DHT22;25589;51.552;13.424;2022-12-18T16:04:45;-0.70;99.90
39919;DHT22;25589;51.552;13.424;2022-12-18T16:07:11;-0.70;99.90
39919;DHT22;25589;51.552;13.424;2022-12-18T16:09:37;-0.80;99.90
39919;DHT22;25589;51.552;13.424;2022-12-18T16:12:05;-0.40;99.90
39919;DHT22;25589;51.552;13.424;2022-12-18T16:14:32;-0.90;99.90
39919;DHT22;25589;51.552;13.424;2022-12-18T16:17:00;-0.90;99.90
39919;DHT22;25589;51.552;13.424;2022-12-18T16:19:27;-0.90;99.90
39919;DHT22;25589;51.552;13.424;2022-12-18T16:21:55;-0.40;99.90
39919;DHT22;25589;51.552;13.424;2022-12-18T16:24:23;-1.00;99.90
39919;DHT22;25589;51.552;13.424;2022-12-18T16:26:49;-0.20;99.90
39919;DHT22;25589;51.552;13.424;2022-12-18T16:29:17;-1.00;99.90
39919;DHT22;25589;51.552;13.424;2022-12-18T16:31:42;-0.10;99.90
39919;DHT22;25589;51.552;13.424;2022-12-18T16:34:30;-0.90;99.90
39919;DHT22;25589;51.552;13.424;2022-12-18T16:37:00;-0.70;99.90
39919;DHT22;25589;51.552;13.424;2022-12-18T16:39:26;-1.20;99.90
39919;DHT22;25589;51.552;13.424;2022-12-18T16:41:52;-2.00;99.90
39919;DHT22;25589;51.552;13.424;2022-12-18T16:44:18;-1.20;99.90
39919;DHT22;25589;51.552;13.424;2022-12-18T16:46:44;-2.00;99.90
39919;DHT22;25589;51.552;13.424;2022-12-18T16:49:14;-1.20;99.90
39919;DHT22;25589;51.552;13.424;2022-12-18T16:51:40;-1.00;99.90
39919;DHT22;25589;51.552;13.424;2022-12-18T16:54:06;-2.20;99.90
39919;DHT22;25589;51.552;13.424;2022-12-18T16:56:32;-1.40;99.90
39919;DHT22;25589;51.552;13.424;2022-12-18T16:58:59;-0.40;99.90
39919;DHT22;25589;51.552;13.424;2022-12-18T17:01:26;-1.30;99.90
39919;DHT22;25589;51.552;13.424;2022-12-18T17:03:59;-0.40;99.90
39919;DHT22;25589;51.552;13.424;2022-12-18T17:06:27;-0.90;99.90
39919;DHT22;25589;51.552;13.424;2022-12-18T17:09:03;0.00;99.90
39919;DHT22;25589;51.552;13.424;2022-12-18T17:11:31;-1.30;99.90
39919;DHT22;25589;51.552;13.424;2022-12-18T17:13:58;-1.50;99.90
39919;DHT22;25589;51.552;13.424;2022-12-18T17:16:24;-1.50;99.90
39919;DHT22;25589;51.552;13.424;2022-12-18T17:18:52;-1.50;99.90
39919;DHT22;25589;51.552;13.424;2022-12-18T17:21:17;-1.60;99.90
39919;DHT22;25589;51.552;13.424;2022-12-18T17:23:44;-1.40;99.90
39919;DHT22;25589;51.552;13.424;2022-12-18T17:26:11;-0.80;99.90
39919;DHT22;25589;51.552;13.424;2022-12-18T17:28:37;-1.60;99.90
39919;DHT22;25589;51.552;13.424;2022-12-18T17:31:30;-0.80;99.90
39919;DHT22;25589;51.552;13.424;2022-12-18T17:33:56;-1.50;99.90
39919;DHT22;25589;51.552;13.424;2022-12-18T17:36:23;-1.30;99.90
39919;DHT22;25589;51.552;13.424;2022-12-18T17:38:50;-1.60;99.90
39919;DHT22;25589;51.552;13.424;2022-12-18T17:41:18;-1.60;99.90
39919;DHT22;25589;51.552;13.424;2022-12-18T17:43:53;-2.20;99.90
39919;DHT22;25589;51.552;13.424;2022-12-18T17:46:19;-2.10;99.90